createdAt,value
2018-07-21T00:01:01.148Z,21.91
2018-07-21T00:03:29.794Z,21.86
2018-07-21T00:05:58.418Z,21.82
2018-07-21T00:08:27.383Z,21.79
2018-07-21T00:10:56.055Z,21.73
2018-07-21T00:13:24.659Z,21.64
2018-07-21T00:15:53.763Z,21.53
2018-07-21T00:18:22.440Z,21.44
2018-07-21T00:20:51.075Z,21.42
2018-07-21T00:23:19.963Z,21.40
2018-07-21T00:25:49.030Z,21.40
2018-07-21T00:28:17.945Z,21.43
2018-07-21T00:30:46.625Z,21.45
2018-07-21T00:33:15.888Z,21.43
2018-07-21T00:35:44.763Z,21.39
2018-07-21T00:38:13.390Z,21.37
2018-07-21T00:40:42.097Z,21.35
2018-07-21T00:43:11.460Z,21.31
2018-07-21T00:45:40.066Z,21.30
2018-07-21T00:48:08.782Z,21.26
2018-07-21T00:50:37.468Z,21.25
2018-07-21T00:53:06.151Z,21.23
2018-07-21T00:55:34.834Z,21.22
2018-07-21T00:58:03.518Z,21.19
2018-07-21T01:00:32.554Z,21.18
2018-07-21T01:03:01.221Z,21.16
2018-07-21T01:05:30.006Z,21.15
2018-07-21T01:07:58.705Z,21.15
2018-07-21T01:10:27.393Z,21.11
2018-07-21T01:12:56.046Z,21.09
2018-07-21T01:15:24.733Z,21.08
2018-07-21T01:17:53.422Z,21.08
2018-07-21T01:20:22.249Z,21.08
2018-07-21T01:22:50.895Z,21.11
2018-07-21T01:25:19.845Z,21.09
2018-07-21T01:27:48.851Z,21.08
2018-07-21T01:30:17.451Z,21.08
2018-07-21T01:32:46.198Z,21.08
2018-07-21T01:35:15.130Z,21.09
2018-07-21T01:37:44.311Z,21.07
2018-07-21T01:40:13.335Z,21.07
2018-07-21T01:42:41.999Z,21.03
2018-07-21T01:45:10.810Z,20.90
2018-07-21T01:47:40.097Z,20.86
2018-07-21T01:50:09.060Z,20.86
2018-07-21T01:52:37.786Z,20.85
2018-07-21T01:55:06.950Z,20.85
2018-07-21T01:57:35.874Z,20.84
2018-07-21T02:00:06.702Z,20.76
2018-07-21T02:02:35.579Z,20.73
2018-07-21T02:05:06.626Z,20.73
2018-07-21T02:07:35.841Z,20.74
2018-07-21T02:10:04.973Z,20.75
2018-07-21T02:12:34.038Z,20.76
2018-07-21T02:15:02.658Z,20.74
2018-07-21T02:17:31.285Z,20.71
2018-07-21T02:20:00.413Z,20.68
2018-07-21T02:22:29.142Z,20.62
2018-07-21T02:24:57.847Z,20.57
2018-07-21T02:27:26.844Z,20.55
2018-07-21T02:29:55.526Z,20.52
2018-07-21T02:32:24.183Z,20.53
2018-07-21T02:34:53.142Z,20.54
2018-07-21T02:37:21.823Z,20.54
2018-07-21T02:39:50.582Z,20.54
2018-07-21T02:42:19.905Z,20.47
2018-07-21T02:44:49.143Z,20.45
2018-07-21T02:47:18.663Z,20.43
2018-07-21T02:49:48.069Z,20.42
2018-07-21T02:52:17.937Z,20.40
2018-07-21T02:54:46.576Z,20.39
2018-07-21T02:57:16.227Z,20.37
2018-07-21T02:59:46.604Z,20.37
2018-07-21T03:02:16.079Z,20.32
2018-07-21T03:04:45.510Z,20.32
2018-07-21T03:07:16.321Z,20.29
2018-07-21T03:09:45.906Z,20.26
2018-07-21T03:12:14.797Z,20.23
2018-07-21T03:14:44.611Z,20.21
2018-07-21T03:17:13.323Z,20.20
2018-07-21T03:19:42.194Z,20.19
2018-07-21T03:22:11.480Z,20.15
2018-07-21T03:24:40.278Z,20.15
2018-07-21T03:27:09.885Z,20.11
2018-07-21T03:29:39.037Z,20.04
2018-07-21T03:32:08.877Z,20.01
2018-07-21T03:34:37.813Z,20.04
2018-07-21T03:37:06.849Z,20.05
2018-07-21T03:39:36.553Z,20.07
2018-07-21T03:42:06.230Z,20.06
2018-07-21T03:44:35.869Z,20.07
2018-07-21T03:47:05.236Z,20.08
2018-07-21T03:49:35.701Z,20.08
2018-07-21T03:52:04.335Z,20.09
2018-07-21T03:54:33.047Z,20.09
2018-07-21T03:57:01.734Z,20.12
2018-07-21T03:59:31.137Z,20.12
2018-07-21T04:02:00.908Z,20.13
2018-07-21T04:04:29.867Z,20.14
2018-07-21T04:06:58.901Z,20.13
2018-07-21T04:09:27.942Z,20.15
2018-07-21T04:11:57.092Z,20.16
2018-07-21T04:14:27.310Z,20.17
2018-07-21T04:16:56.817Z,20.16
2018-07-21T04:19:25.812Z,20.20
2018-07-21T04:21:54.519Z,20.20
2018-07-21T04:24:23.183Z,20.14
2018-07-21T04:26:52.110Z,20.13
2018-07-21T04:29:20.792Z,20.13
2018-07-21T04:31:49.782Z,20.16
2018-07-21T04:34:18.739Z,20.19
2018-07-21T04:36:47.334Z,20.22
2018-07-21T04:39:16.318Z,20.23
2018-07-21T04:41:46.384Z,20.24
2018-07-21T04:44:16.946Z,20.26
2018-07-21T04:46:46.072Z,20.30
2018-07-21T04:49:16.629Z,20.33
2018-07-21T04:51:45.880Z,20.39
2018-07-21T04:54:15.678Z,20.41
2018-07-21T04:56:45.710Z,20.44
2018-07-21T04:59:15.878Z,20.46
2018-07-21T05:01:45.284Z,20.48
2018-07-21T05:04:15.760Z,20.52
2018-07-21T05:06:46.011Z,20.57
2018-07-21T05:09:14.958Z,20.59
2018-07-21T05:11:43.613Z,20.62
2018-07-21T05:14:12.542Z,20.65
2018-07-21T05:16:41.187Z,20.68
2018-07-21T05:19:09.812Z,20.76
2018-07-21T05:21:38.704Z,20.77
2018-07-21T05:24:07.454Z,20.78
2018-07-21T05:26:36.416Z,20.84
2018-07-21T05:29:05.234Z,20.86
2018-07-21T05:31:33.962Z,20.92
2018-07-21T05:34:02.814Z,20.96
2018-07-21T05:36:31.467Z,20.96
2018-07-21T05:39:01.392Z,21.01
2018-07-21T05:41:30.170Z,21.05
2018-07-21T05:44:00.259Z,21.09
2018-07-21T05:46:28.893Z,21.15
2018-07-21T05:48:57.558Z,21.19
2018-07-21T05:51:26.181Z,21.24
2018-07-21T05:53:54.931Z,21.30
2018-07-21T05:56:23.601Z,21.43
2018-07-21T05:58:53.100Z,21.50
2018-07-21T06:01:22.666Z,21.50
2018-07-21T06:03:53.063Z,21.55
2018-07-21T06:06:22.456Z,21.58
2018-07-21T06:08:52.841Z,21.63
2018-07-21T06:11:22.832Z,21.62
2018-07-21T06:13:52.129Z,21.66
2018-07-21T06:16:21.378Z,21.74
2018-07-21T06:18:51.312Z,21.84
2018-07-21T06:21:21.164Z,21.93
2018-07-21T06:23:51.173Z,22.01
2018-07-21T06:26:21.339Z,22.04
2018-07-21T06:28:50.745Z,22.05
2018-07-21T06:31:21.091Z,22.11
2018-07-21T06:33:51.027Z,22.15
2018-07-21T06:36:21.114Z,22.29
2018-07-21T06:38:50.937Z,22.49
2018-07-21T06:41:21.949Z,22.58
2018-07-21T06:43:51.435Z,22.65
2018-07-21T06:46:20.106Z,22.84
2018-07-21T06:48:49.264Z,22.99
2018-07-21T06:51:17.942Z,23.13
2018-07-21T06:53:46.815Z,23.36
2018-07-21T06:56:16.049Z,23.47
2018-07-21T06:58:44.652Z,23.74
2018-07-21T07:01:13.311Z,23.93
2018-07-21T07:03:44.769Z,24.05
2018-07-21T07:06:14.567Z,24.27
2018-07-21T07:08:43.782Z,24.46
2018-07-21T07:11:12.730Z,24.63
2018-07-21T07:13:41.474Z,24.82
2018-07-21T07:16:10.214Z,25.05
2018-07-21T07:18:38.948Z,25.27
2018-07-21T07:21:07.615Z,25.50
2018-07-21T07:23:37.620Z,25.70
2018-07-21T07:26:06.737Z,25.79
2018-07-21T07:28:36.044Z,26.06
2018-07-21T07:31:04.735Z,26.36
2018-07-21T07:33:33.790Z,26.50
2018-07-21T07:36:02.445Z,26.57
2018-07-21T07:38:31.114Z,26.40
2018-07-21T07:40:59.779Z,26.40
2018-07-21T07:43:28.669Z,26.45
2018-07-21T07:45:57.667Z,26.26
2018-07-21T07:48:26.448Z,26.10
2018-07-21T07:50:55.444Z,26.14
2018-07-21T07:53:24.156Z,26.08
2018-07-21T07:55:53.374Z,26.10
2018-07-21T07:58:22.137Z,26.04
2018-07-21T08:00:50.894Z,25.89
2018-07-21T08:03:19.807Z,25.80
2018-07-21T08:05:48.579Z,25.94
2018-07-21T08:08:17.604Z,26.09
2018-07-21T08:10:46.245Z,26.34
2018-07-21T08:13:14.884Z,26.59
2018-07-21T08:15:43.553Z,26.68
2018-07-21T08:18:12.208Z,26.87
2018-07-21T08:20:40.840Z,27.12
2018-07-21T08:23:09.686Z,27.37
2018-07-21T08:25:38.533Z,27.73
2018-07-21T08:28:07.476Z,28.12
2018-07-21T08:30:36.126Z,28.30
2018-07-21T08:33:04.846Z,28.56
2018-07-21T08:35:33.783Z,28.83
2018-07-21T08:38:02.489Z,29.00
2018-07-21T08:40:31.444Z,28.80
2018-07-21T08:43:00.103Z,28.50
2018-07-21T08:45:28.757Z,28.60
2018-07-21T08:47:58.125Z,29.04
2018-07-21T08:50:27.524Z,29.30
2018-07-21T08:52:56.313Z,29.36
2018-07-21T08:55:25.526Z,29.60
2018-07-21T08:57:54.414Z,29.71
2018-07-21T09:00:23.478Z,29.73
2018-07-21T09:02:52.283Z,29.60
2018-07-21T09:05:21.241Z,29.51
2018-07-21T09:07:50.179Z,29.45
2018-07-21T09:10:19.102Z,29.52
2018-07-21T09:16:20.508Z,29.39
2018-07-21T09:18:49.598Z,29.60
2018-07-21T09:21:18.471Z,29.54
2018-07-21T09:23:47.390Z,29.67
2018-07-21T09:26:16.317Z,29.91
2018-07-21T09:28:45.005Z,30.14
2018-07-21T09:31:13.675Z,30.02
2018-07-21T09:33:42.577Z,30.02
2018-07-21T09:36:11.295Z,30.08
2018-07-21T09:38:40.591Z,30.17
2018-07-21T09:41:09.205Z,29.91
2018-07-21T09:43:37.873Z,29.56
2018-07-21T09:46:07.843Z,29.13
2018-07-21T09:48:36.489Z,28.58
2018-07-21T09:51:05.437Z,28.55
2018-07-21T09:53:34.312Z,28.38
2018-07-21T09:56:03.400Z,28.23
2018-07-21T09:58:32.594Z,28.12
2018-07-21T10:01:02.250Z,28.03
2018-07-21T10:03:31.652Z,27.83
2018-07-21T10:06:00.580Z,27.65
2018-07-21T10:08:29.636Z,27.73
2018-07-21T10:10:58.334Z,27.74
2018-07-21T10:13:27.349Z,27.96
2018-07-21T10:15:56.015Z,27.96
2018-07-21T10:18:24.653Z,27.95
2018-07-21T10:20:53.742Z,28.08
2018-07-21T10:23:24.880Z,28.13
2018-07-21T10:25:59.283Z,28.20
2018-07-21T10:28:33.402Z,27.98
2018-07-21T10:31:02.125Z,27.94
2018-07-21T10:33:31.091Z,28.08
2018-07-21T10:35:59.730Z,28.12
2018-07-21T10:38:28.515Z,28.26
2018-07-21T10:40:57.445Z,28.29
2018-07-21T10:43:26.227Z,28.40
2018-07-21T10:45:55.506Z,28.93
2018-07-21T10:48:24.384Z,29.25
2018-07-21T10:50:53.057Z,29.33
2018-07-21T10:53:21.734Z,29.25
2018-07-21T10:55:50.556Z,29.22
2018-07-21T10:58:19.603Z,29.17
2018-07-21T11:00:48.446Z,29.16
2018-07-21T11:03:17.421Z,29.19
2018-07-21T11:05:46.184Z,28.99
2018-07-21T11:08:14.897Z,28.89
2018-07-21T11:10:43.933Z,28.72
2018-07-21T11:13:13.024Z,28.39
2018-07-21T11:15:41.765Z,28.35
2018-07-21T11:18:10.470Z,28.43
2018-07-21T11:20:39.141Z,28.29
2018-07-21T11:23:07.822Z,28.23
2018-07-21T11:25:36.534Z,28.26
2018-07-21T11:28:05.655Z,28.17
2018-07-21T11:30:34.337Z,28.03
2018-07-21T11:33:03.419Z,27.90
2018-07-21T11:35:32.152Z,27.83
2018-07-21T11:38:01.158Z,27.84
2018-07-21T11:40:29.832Z,28.01
2018-07-21T11:42:59.068Z,28.35
2018-07-21T11:45:28.103Z,28.81
2018-07-21T11:47:57.094Z,29.32
2018-07-21T11:50:25.954Z,29.79
2018-07-21T11:52:54.944Z,30.06
2018-07-21T11:55:23.968Z,30.21
2018-07-21T11:57:52.744Z,30.27
2018-07-21T12:00:21.694Z,30.29
2018-07-21T12:02:50.660Z,30.39
2018-07-21T12:05:19.685Z,30.50
2018-07-21T12:07:48.391Z,30.68
2018-07-21T12:10:17.130Z,31.14
2018-07-21T12:12:45.817Z,31.59
2018-07-21T12:15:14.871Z,32.08
2018-07-21T12:17:43.982Z,33.01
2018-07-21T12:20:12.816Z,33.42
2018-07-21T12:22:41.871Z,33.34
2018-07-21T12:25:10.599Z,33.53
2018-07-21T12:27:39.673Z,33.42
2018-07-21T12:30:10.298Z,33.81
2018-07-21T12:32:39.705Z,34.90
2018-07-21T12:35:08.636Z,35.96
2018-07-21T12:37:37.380Z,37.04
2018-07-21T12:40:06.534Z,37.97
2018-07-21T12:42:35.523Z,39.46
2018-07-21T12:45:05.222Z,40.52
2018-07-21T12:47:34.285Z,41.29
2018-07-21T12:50:03.068Z,42.13
2018-07-21T12:52:31.779Z,42.48
2018-07-21T12:55:00.521Z,42.89
2018-07-21T12:57:29.191Z,43.61
2018-07-21T12:59:58.322Z,43.54
2018-07-21T13:02:27.001Z,43.78
2018-07-21T13:04:55.663Z,43.87
2018-07-21T13:07:24.436Z,43.91
2018-07-21T13:09:53.208Z,43.76
2018-07-21T13:12:21.928Z,43.25
2018-07-21T13:14:50.650Z,42.59
2018-07-21T13:17:19.606Z,41.28
2018-07-21T13:19:49.034Z,40.29
2018-07-21T13:22:17.762Z,39.82
2018-07-21T13:24:46.557Z,40.36
2018-07-21T13:27:15.363Z,41.05
2018-07-21T13:29:43.975Z,42.17
2018-07-21T13:32:12.797Z,42.85
2018-07-21T13:34:41.454Z,43.23
2018-07-21T13:37:10.200Z,42.52
2018-07-21T13:39:38.894Z,40.71
2018-07-21T13:42:07.751Z,38.78
2018-07-21T13:44:36.452Z,37.76
2018-07-21T13:47:05.206Z,37.53
2018-07-21T13:49:33.926Z,36.91
2018-07-21T13:52:02.692Z,36.23
2018-07-21T13:54:32.351Z,35.61
2018-07-21T13:57:01.316Z,34.68
2018-07-21T13:59:30.017Z,34.26
2018-07-21T14:01:58.751Z,34.11
2018-07-21T14:04:27.841Z,33.78
2018-07-21T14:06:56.791Z,33.64
2018-07-21T14:09:25.512Z,33.73
2018-07-21T14:11:54.368Z,33.33
2018-07-21T14:14:23.522Z,32.72
2018-07-21T14:16:52.563Z,32.58
2018-07-21T14:19:21.338Z,32.71
2018-07-21T14:21:50.021Z,33.45
2018-07-21T14:24:19.094Z,34.26
2018-07-21T14:26:47.763Z,34.24
2018-07-21T14:29:16.466Z,33.98
2018-07-21T14:31:45.171Z,33.74
2018-07-21T14:34:13.853Z,33.08
2018-07-21T14:36:42.571Z,32.43
2018-07-21T14:39:14.397Z,31.74
2018-07-21T14:41:43.558Z,31.14
2018-07-21T14:44:12.384Z,30.55
2018-07-21T14:46:41.069Z,30.16
2018-07-21T14:49:09.775Z,29.81
2018-07-21T14:51:38.502Z,29.48
2018-07-21T14:54:07.234Z,29.24
2018-07-21T14:56:36.483Z,29.07
2018-07-21T14:59:05.205Z,28.97
2018-07-21T15:01:34.010Z,28.92
2018-07-21T15:04:02.668Z,28.88
2018-07-21T15:06:31.368Z,28.95
2018-07-21T15:09:00.299Z,28.94
2018-07-21T15:11:29.512Z,28.98
2018-07-21T15:13:58.496Z,28.88
2018-07-21T15:16:27.202Z,29.05
2018-07-21T15:18:55.975Z,29.05
2018-07-21T15:21:24.630Z,29.03
2018-07-21T15:23:53.885Z,28.97
2018-07-21T15:26:22.577Z,28.92
2018-07-21T15:28:51.234Z,28.93
2018-07-21T15:31:20.255Z,28.87
2018-07-21T15:33:49.312Z,28.84
2018-07-21T15:36:18.412Z,28.75
2018-07-21T15:38:47.330Z,28.67
2018-07-21T15:41:15.950Z,28.58
2018-07-21T15:43:45.858Z,28.54
2018-07-21T15:46:14.512Z,28.43
2018-07-21T15:48:43.659Z,28.36
2018-07-21T15:51:12.641Z,28.28
2018-07-21T15:53:41.393Z,28.25
2018-07-21T15:56:10.183Z,28.19
2018-07-21T15:58:39.260Z,28.16
2018-07-21T16:01:08.903Z,28.09
2018-07-21T16:03:37.605Z,28.01
2018-07-21T16:06:06.629Z,27.98
2018-07-21T16:08:35.442Z,27.92
2018-07-21T16:11:04.119Z,27.88
2018-07-21T16:13:33.142Z,27.80
2018-07-21T16:16:01.874Z,27.66
2018-07-21T16:18:30.605Z,27.58
2018-07-21T16:20:59.601Z,27.49
2018-07-21T16:23:28.376Z,27.46
2018-07-21T16:25:57.444Z,27.48
2018-07-21T16:28:26.438Z,27.39
2018-07-21T16:30:55.064Z,27.30
2018-07-21T16:33:24.136Z,27.25
2018-07-21T16:35:53.186Z,27.24
2018-07-21T16:38:21.910Z,27.18
2018-07-21T16:40:50.573Z,27.12
2018-07-21T16:43:19.830Z,27.07
2018-07-21T16:45:48.688Z,27.01
2018-07-21T16:48:17.436Z,26.95
2018-07-21T16:50:46.163Z,26.91
2018-07-21T16:53:15.220Z,26.94
2018-07-21T16:55:44.080Z,26.83
2018-07-21T16:58:13.090Z,26.77
2018-07-21T17:00:41.760Z,26.69
2018-07-21T17:03:10.538Z,26.67
2018-07-21T17:05:39.169Z,26.61
2018-07-21T17:08:07.964Z,26.57
2018-07-21T17:10:36.680Z,26.50
2018-07-21T17:13:05.421Z,26.49
2018-07-21T17:15:34.148Z,26.49
2018-07-21T17:18:02.870Z,26.43
2018-07-21T17:20:31.604Z,26.42
2018-07-21T17:23:00.392Z,26.41
2018-07-21T17:25:29.102Z,26.40
2018-07-21T17:27:58.124Z,26.36
2018-07-21T17:30:27.019Z,26.31
2018-07-21T17:32:56.029Z,26.30
2018-07-21T17:35:24.746Z,26.31
2018-07-21T17:37:53.549Z,26.28
2018-07-21T17:40:22.579Z,26.24
2018-07-21T17:42:51.551Z,26.25
2018-07-21T17:45:20.298Z,26.20
2018-07-21T17:47:49.130Z,26.14
2018-07-21T17:50:17.882Z,26.14
2018-07-21T17:52:46.709Z,26.11
2018-07-21T17:55:15.356Z,26.07
2018-07-21T17:57:44.358Z,26.04
2018-07-21T18:00:13.207Z,26.03
2018-07-21T18:02:41.899Z,26.05
2018-07-21T18:05:10.635Z,26.02
2018-07-21T18:07:39.393Z,25.98
2018-07-21T18:10:08.245Z,25.96
2018-07-21T18:12:36.942Z,25.93
2018-07-21T18:15:06.071Z,25.94
2018-07-21T18:17:34.863Z,25.92
2018-07-21T18:20:03.861Z,25.90
2018-07-21T18:22:32.621Z,25.88
2018-07-21T18:25:01.597Z,25.86
2018-07-21T18:27:30.763Z,25.87
2018-07-21T18:29:59.533Z,25.87
2018-07-21T18:32:28.625Z,25.84
2018-07-21T18:34:57.712Z,25.82
2018-07-21T18:37:26.472Z,25.81
2018-07-21T18:39:55.199Z,25.78
2018-07-21T18:42:23.999Z,25.76
2018-07-21T18:44:52.692Z,25.73
2018-07-21T18:47:21.374Z,25.71
2018-07-21T18:49:50.061Z,25.67
2018-07-21T18:52:18.707Z,25.64
2018-07-21T18:54:47.414Z,25.62
2018-07-21T18:57:16.436Z,25.61
2018-07-21T18:59:45.337Z,25.57
2018-07-21T19:02:14.477Z,25.54
2018-07-21T19:04:43.198Z,25.51
2018-07-21T19:07:11.950Z,25.48
2018-07-21T19:09:40.648Z,25.45
2018-07-21T19:12:14.710Z,25.44
2018-07-21T19:14:43.379Z,25.42
2018-07-21T19:17:12.129Z,25.39
2018-07-21T19:19:46.001Z,25.34
2018-07-21T19:22:14.789Z,25.30
2018-07-21T19:24:43.482Z,25.26
2018-07-21T19:27:17.417Z,25.26
2018-07-21T19:29:46.821Z,25.25
2018-07-21T19:32:20.866Z,25.25
2018-07-21T19:34:49.581Z,25.23
2018-07-21T19:37:23.493Z,25.20
2018-07-21T19:39:52.292Z,25.17
2018-07-21T19:42:20.973Z,25.12
2018-07-21T19:44:49.629Z,25.06
2018-07-21T19:47:18.328Z,25.03
2018-07-21T19:49:48.083Z,24.99
2018-07-21T19:52:16.978Z,24.97
2018-07-21T19:54:45.732Z,24.96
2018-07-21T19:57:14.367Z,24.91
2018-07-21T19:59:43.014Z,24.88
2018-07-21T20:02:11.736Z,24.86
2018-07-21T20:04:40.444Z,24.84
2018-07-21T20:07:09.570Z,24.78
2018-07-21T20:09:38.834Z,24.74
2018-07-21T20:12:07.697Z,24.73
2018-07-21T20:14:36.660Z,24.70
2018-07-21T20:17:06.270Z,24.69
2018-07-21T20:19:35.019Z,24.68
2018-07-21T20:22:03.805Z,24.67
2018-07-21T20:24:32.554Z,24.62
2018-07-21T20:27:01.331Z,24.63
2018-07-21T20:29:30.108Z,24.65
2018-07-21T20:31:59.203Z,24.68
2018-07-21T20:34:27.961Z,24.68
2018-07-21T20:36:56.990Z,24.66
2018-07-21T20:39:25.774Z,24.65
2018-07-21T20:41:54.566Z,24.61
2018-07-21T20:44:23.256Z,24.59
2018-07-21T20:46:52.141Z,24.53
2018-07-21T20:49:20.895Z,24.49
2018-07-21T20:51:49.719Z,24.48
2018-07-21T20:54:18.426Z,24.45
2018-07-21T20:56:47.418Z,24.44
2018-07-21T20:59:16.502Z,24.44
2018-07-21T21:01:45.297Z,24.43
2018-07-21T21:04:14.102Z,24.43
2018-07-21T21:06:42.836Z,24.43
2018-07-21T21:09:12.362Z,24.43
2018-07-21T21:11:41.966Z,24.45
2018-07-21T21:14:10.802Z,24.43
2018-07-21T21:16:39.583Z,24.46
2018-07-21T21:19:08.305Z,24.44
2018-07-21T21:21:37.018Z,24.43
2018-07-21T21:24:06.173Z,24.45
2018-07-21T21:26:35.118Z,24.43
2018-07-21T21:29:03.875Z,24.42
2018-07-21T21:31:32.663Z,24.38
2018-07-21T21:34:01.613Z,24.35
2018-07-21T21:36:30.824Z,24.31
2018-07-21T21:38:59.866Z,24.27
2018-07-21T21:41:28.626Z,24.26
2018-07-21T21:43:57.324Z,24.27
2018-07-21T21:46:26.258Z,24.26
2018-07-21T21:48:54.992Z,24.27
2018-07-21T21:51:23.737Z,24.28
2018-07-21T21:53:53.217Z,24.26
2018-07-21T21:56:22.512Z,24.23
2018-07-21T21:58:51.285Z,24.16
2018-07-21T22:01:20.805Z,24.10
2018-07-21T22:03:51.781Z,24.06
2018-07-21T22:06:21.490Z,24.11
2018-07-21T22:08:52.535Z,24.11
2018-07-21T22:11:21.885Z,24.12
2018-07-21T22:13:50.789Z,24.15
2018-07-21T22:16:19.721Z,24.11
2018-07-21T22:18:48.521Z,24.06
2018-07-21T22:21:17.555Z,24.10
2018-07-21T22:23:46.257Z,24.04
2018-07-21T22:26:14.929Z,23.97
2018-07-21T22:28:43.607Z,23.98
2018-07-21T22:31:12.365Z,23.97
2018-07-21T22:33:41.129Z,24.03
2018-07-21T22:36:10.342Z,24.09
2018-07-21T22:38:38.986Z,24.12
2018-07-21T22:41:07.641Z,24.14
2018-07-21T22:43:36.729Z,24.02
2018-07-21T22:46:06.142Z,23.96
2018-07-21T22:48:35.149Z,23.91
2018-07-21T22:51:04.523Z,23.87
2018-07-21T22:53:33.541Z,23.86
2018-07-21T22:56:02.176Z,23.84
2018-07-21T22:58:30.838Z,23.73
2018-07-21T23:00:59.874Z,23.66
2018-07-21T23:03:28.488Z,23.59
2018-07-21T23:05:58.055Z,23.53
2018-07-21T23:08:26.705Z,23.50
2018-07-21T23:10:56.288Z,23.44
2018-07-21T23:13:25.254Z,23.41
2018-07-21T23:15:53.899Z,23.41
2018-07-21T23:18:23.633Z,23.41
2018-07-21T23:20:52.413Z,23.41
2018-07-21T23:23:21.110Z,23.37
2018-07-21T23:25:50.111Z,23.34
2018-07-21T23:28:18.755Z,23.35
2018-07-21T23:30:47.781Z,23.36
2018-07-21T23:33:16.461Z,23.35
2018-07-21T23:35:45.135Z,23.36
2018-07-21T23:38:14.413Z,23.38
2018-07-21T23:40:43.068Z,23.36
2018-07-21T23:43:12.146Z,23.33
2018-07-21T23:45:40.806Z,23.33
2018-07-21T23:48:09.470Z,23.30
2018-07-21T23:50:38.155Z,23.28
2018-07-21T23:53:07.445Z,23.22
2018-07-21T23:55:36.109Z,23.18
2018-07-21T23:58:07.834Z,23.15
